West Coast Vancouver Island North: Past 24 Hour Conditions

 

West Sea Otter - 46204

10:00 PM PDT 23 October 2017Buoy position: 51.23N 128.46W
Disclaimer

This table is a summary of hourly weather conditions for the past 24 hours.
Please note that these observations might not always be representative of weather conditions over their associated marine area.

Date / Time
(PDT)
Wind(knots) Wave height(m) Wave period(s) Pressure(kPa) Air tempC) Water tempC)
23 October 2017
22:00 S 29 gust 39 4.6 8.0 102.8 12 11
21:00 S 31 gust 39 4.3 8.0 102.7 12 11
20:00 S 31 gust 39 4.4 7.0 102.6 12 11
19:00 SSE 29 gust 37 4.3 7.0 102.6 12 11
18:00 SSE 33 gust 41 4.8 9.0 102.5 12 11
17:00 S 31 gust 39 4.9 8.0 102.5 12 11
16:00 SSE 31 gust 41 4.7 8.0 102.5 12 11
15:00 SSE 27 gust 37 4.5 8.0 102.5 11 11
14:00 SE 31 gust 39 4.5 8.0 102.5 11 11
13:00 SSE 27 gust 35 4.8 8.0 102.6 11 11
12:00 SSE 27 gust 33 4.7 7.0 102.6 11 11
11:00 SSE 29 gust 35 4.4 8.0 102.5 10 11
10:00 SSE 29 gust 37 4.4 7.0 102.4 10 11
9:00 SE 31 gust 41 4.2 7.0 102.3 10 11
8:00 SE 33 N/A N/A 102.3 10 11
7:00 SE 31 gust 37 4.0 13.0 102.4 10 11
6:00 SE 29 gust 37 3.7 13.0 102.4 10 11
5:00 SE 23 gust 29 3.7 12.0 102.5 10 11
4:00 SE 19 gust 25 3.7 14.0 102.6 10 11
3:00 SE 19 gust 25 4.2 14.0 102.6 11 11
2:00 SE 19 gust 23 4.0 14.0 102.6 11 11
1:00 SSE 18 gust 21 4.3 14.0 102.7 11 10
0:00 S 16 gust 19 4.9 13.0 102.7 11 10
22 October 2017
23:00 S 12 gust 14 4.7 14.0 102.6 11 10
22:00 S 12 gust 16 5.0 13.0 102.5 11 10

Zoom-in to make a selection

Map of Pacific - South Coast marine weather areas Tsawwassen Ferry Terminal South Nomad - 46036 Sentry Shoal - 46131 South Brooks - 46132 Halibut Bank - 46146 South Moresby - 46147 South Hecate Strait - 46185 West Sea Otter - 46204 La Perouse Bank - 46206 East Dellwood - 46207 Discovery Island Esquimalt Harbour Kelp Reefs Malahat Race Rocks Lightstation Saturna Island Sheringham Point University of Victoria Victoria Gonzales Victoria Int'l Airport Ballenas Islands Campbell River Airport Comox Airport Entrance Island Fanny Island Nanaimo Airport Port Hardy Airport Sisters Islets Estevan Point Sartine Island Solander Island Tofino Airport Grief Point Powell River Airport Sechelt Cape St.James Bella Bella Airport Bella Coola Airport Cathedral Point Herbert Island Point Atkinson Sand Heads Lightstation Vancouver Harbour Vancouver Int'l Airport West Vancouver Port Alberni Howe Sound - Pam Rocks Squamish Airport
Legend:
buoy Buoy
land station Land Station

Pacific - South Coast Area

Another Region

What we are doing

Features

Summer 2017: Significant weather across Canada

By analyzing weather events, ECCC is collecting more information as to how our climate is changing.

Date modified: